Time;durP1;ratioP1;P1;durP2;ratioP2;P2;SDS_P1;SDS_P2;PMS_P1;PMS_P2;Temp;Humidity;BMP_temperature;BMP_pressure;BME280_temperature;BME280_humidity;BME280_pressure;Samples;Min_cycle;Max_cycle;Signal;HPM_P1;HPM_P2
2023/05/25 00:08:42;;;;;;;10.50;8.40;;;9.80;99.90;;;;;;20909454;28;20063;-57
2023/05/25 00:18:44;;;;;;;13.80;9.07;;;9.90;99.90;;;;;;20921365;28;20033;-50
2023/05/25 00:28:45;;;;;;;12.40;9.18;;;9.80;99.90;;;;;;20908903;28;20029;-48
2023/05/25 00:38:47;;;;;;;9.30;8.20;;;9.70;99.90;;;;;;20910390;28;20134;-55
2023/05/25 00:48:53;;;;;;;15.55;9.40;;;9.80;99.90;;;;;;20911115;28;20040;-51
2023/05/25 00:58:59;;;;;;;13.48;10.57;;;9.70;99.90;;;;;;20918438;28;20174;-54
2023/05/25 01:09:04;;;;;;;14.05;10.82;;;9.80;99.90;;;;;;20913426;28;20052;-46
2023/05/25 01:19:05;;;;;;;14.38;10.70;;;9.80;99.90;;;;;;20914547;28;20060;-56
2023/05/25 01:29:10;;;;;;;17.25;12.90;;;9.60;99.90;;;;;;20906784;28;20474;-48
2023/05/25 01:39:12;;;;;;;16.08;12.02;;;9.80;99.90;;;;;;20906425;28;20064;-47
2023/05/25 01:49:36;;;;;;;14.02;10.77;;;9.80;99.90;;;;;;20902787;28;20079;-45
2023/05/25 01:59:38;;;;;;;16.08;11.85;;;9.80;99.90;;;;;;20908913;28;20032;-45
2023/05/25 02:09:39;;;;;;;21.23;12.52;;;9.70;99.90;;;;;;20905440;28;20456;-50
2023/05/25 02:19:41;;;;;;;19.60;14.50;;;9.60;99.90;;;;;;20902807;28;20083;-45
2023/05/25 02:29:44;;;;;;;16.85;10.02;;;9.60;99.90;;;;;;20920257;28;20029;-47
2023/05/25 02:39:46;;;;;;;7.18;5.05;;;9.40;99.90;;;;;;20924733;28;20059;-45
2023/05/25 02:49:47;;;;;;;6.57;3.50;;;9.20;99.90;;;;;;20928446;28;20033;-59
2023/05/25 02:59:49;;;;;;;6.55;4.18;;;8.90;99.90;;;;;;20920211;28;20025;-44
2023/05/25 03:09:52;;;;;;;6.13;3.85;;;8.70;99.90;;;;;;20925733;28;20033;-45
2023/05/25 03:19:53;;;;;;;5.60;3.40;;;8.60;99.90;;;;;;20922485;28;20134;-47
2023/05/25 03:29:55;;;;;;;6.88;2.83;;;8.60;99.90;;;;;;20923914;28;20037;-59
2023/05/25 03:39:57;;;;;;;8.02;3.13;;;8.50;99.90;;;;;;20919010;28;20550;-56
2023/05/25 03:49:59;;;;;;;8.57;2.35;;;8.50;99.90;;;;;;20914556;28;20055;-60
2023/05/25 04:00:01;;;;;;;4.82;2.55;;;8.50;99.90;;;;;;20914351;28;20445;-47
2023/05/25 04:10:05;;;;;;;3.75;2.50;;;8.50;99.90;;;;;;20916779;28;20076;-53
2023/05/25 04:20:07;;;;;;;5.93;3.03;;;8.50;99.90;;;;;;20913494;28;20474;-60
2023/05/25 04:30:09;;;;;;;5.97;3.08;;;8.50;99.90;;;;;;20909135;28;20029;-47
2023/05/25 04:40:32;;;;;;;5.03;3.80;;;8.70;99.90;;;;;;20915246;28;20174;-59
2023/05/25 04:50:34;;;;;;;5.65;3.80;;;8.70;99.90;;;;;;20911111;28;20528;-59
2023/05/25 05:00:38;;;;;;;6.78;4.00;;;8.60;99.90;;;;;;20909398;28;20032;-49
2023/05/25 05:10:40;;;;;;;5.82;3.85;;;8.70;99.90;;;;;;20915926;28;20037;-60
2023/05/25 05:20:43;;;;;;;7.80;3.50;;;8.70;99.90;;;;;;20910267;28;20029;-56
2023/05/25 05:30:46;;;;;;;4.65;2.80;;;8.70;99.90;;;;;;20903097;28;20398;-48
2023/05/25 05:40:48;;;;;;;4.20;3.20;;;8.80;99.90;;;;;;20905001;28;20049;-47
2023/05/25 05:50:54;;;;;;;3.13;2.50;;;8.90;99.90;;;;;;20906933;28;20040;-46
2023/05/25 06:00:58;;;;;;;3.30;2.30;;;9.10;99.90;;;;;;20909200;28;20090;-60
2023/05/25 06:11:00;;;;;;;5.63;2.17;;;9.40;99.90;;;;;;20900427;28;20083;-57
2023/05/25 06:21:02;;;;;;;3.88;1.83;;;9.80;99.90;;;;;;20908305;28;20390;-47
2023/05/25 06:31:05;;;;;;;2.00;1.45;;;10.00;99.90;;;;;;20906989;28;20033;-47
2023/05/25 06:41:08;;;;;;;1.90;1.40;;;10.20;99.90;;;;;;20904691;28;20044;-50
2023/05/25 06:51:10;;;;;;;1.38;1.20;;;10.30;99.90;;;;;;20903838;28;20033;-46
2023/05/25 07:01:12;;;;;;;2.00;1.30;;;10.30;99.90;;;;;;20912625;28;20433;-47
2023/05/25 07:11:13;;;;;;;1.23;0.82;;;10.40;99.90;;;;;;20910903;28;20495;-46
2023/05/25 07:21:15;;;;;;;1.30;0.90;;;10.60;99.90;;;;;;20925930;28;20535;-49
2023/05/25 07:31:17;;;;;;;1.23;1.10;;;10.70;99.90;;;;;;20911635;28;20025;-47
2023/05/25 07:41:18;;;;;;;1.50;1.20;;;10.70;99.90;;;;;;20911406;28;20095;-51
2023/05/25 07:51:22;;;;;;;1.52;1.08;;;10.70;99.90;;;;;;20911857;28;20402;-46
2023/05/25 08:01:23;;;;;;;2.75;1.63;;;10.40;99.90;;;;;;20919323;28;20029;-48
2023/05/25 08:11:25;;;;;;;2.80;1.50;;;10.50;99.90;;;;;;20914569;28;20036;-54
2023/05/25 08:21:27;;;;;;;2.20;1.20;;;11.30;99.90;;;;;;20909124;28;20036;-51
2023/05/25 08:31:30;;;;;;;1.98;1.20;;;12.00;99.90;;;;;;20916464;28;20079;-47
2023/05/25 08:41:39;;;;;;;2.22;1.23;;;12.90;99.90;;;;;;20916031;28;20041;-47
2023/05/25 08:51:46;;;;;;;3.27;1.00;;;13.40;99.90;;;;;;20915177;28;20033;-47
2023/05/25 09:01:54;;;;;;;1.98;1.10;;;13.40;99.90;;;;;;20899914;28;20037;-55
2023/05/25 09:11:57;;;;;;;1.00;0.82;;;14.10;99.90;;;;;;20909885;28;20037;-55
2023/05/25 09:22:00;;;;;;;1.73;1.00;;;15.00;99.90;;;;;;20904581;28;20055;-57
2023/05/25 09:32:05;;;;;;;2.97;0.93;;;15.70;99.90;;;;;;20911099;28;20060;-56
2023/05/25 09:42:07;;;;;;;2.45;1.00;;;16.00;99.90;;;;;;20912157;28;20060;-57
2023/05/25 09:52:10;;;;;;;1.45;1.10;;;16.00;99.90;;;;;;20909188;28;20040;-57
2023/05/25 10:02:13;;;;;;;1.92;1.15;;;16.40;99.90;;;;;;20904936;28;20036;-57
2023/05/25 10:12:18;;;;;;;1.70;1.13;;;16.80;99.90;;;;;;20905805;28;20454;-45
2023/05/25 10:22:24;;;;;;;1.80;1.00;;;16.80;99.90;;;;;;20909755;28;20029;-49
2023/05/25 10:32:27;;;;;;;1.20;0.88;;;16.70;99.90;;;;;;20912384;28;20041;-57
2023/05/25 10:42:29;;;;;;;1.25;0.60;;;16.90;99.90;;;;;;20909382;28;20067;-46
2023/05/25 10:52:32;;;;;;;1.88;0.98;;;17.30;99.90;;;;;;20921183;28;20040;-50
2023/05/25 11:02:50;;;;;;;1.30;0.80;;;17.30;99.90;;;;;;20921648;28;20033;-58
2023/05/25 11:12:51;;;;;;;0.93;0.75;;;17.50;99.90;;;;;;20923436;28;20033;-48
2023/05/25 11:22:53;;;;;;;0.63;0.43;;;18.50;99.90;;;;;;20914252;28;20032;-59
2023/05/25 11:32:58;;;;;;;1.52;0.73;;;18.80;99.90;;;;;;20918671;28;20452;-59
2023/05/25 11:43:00;;;;;;;2.72;0.65;;;18.90;99.90;;;;;;20915200;28;20364;-59
2023/05/25 11:53:05;;;;;;;3.10;0.40;;;18.70;99.90;;;;;;20912104;28;20374;-59
2023/05/25 12:03:09;;;;;;;1.15;0.65;;;18.70;98.30;;;;;;20903302;28;20045;-59
2023/05/25 12:13:13;;;;;;;1.25;0.57;;;19.10;97.10;;;;;;20919558;28;20079;-60
2023/05/25 12:23:15;;;;;;;1.63;0.40;;;19.10;95.90;;;;;;20917373;28;20032;-59
2023/05/25 12:33:16;;;;;;;1.33;0.90;;;19.70;94.60;;;;;;20916481;28;20110;-59
2023/05/25 12:43:18;;;;;;;1.20;0.70;;;19.80;98.90;;;;;;20911140;28;20041;-59
2023/05/25 12:53:20;;;;;;;2.15;1.08;;;21.30;99.90;;;;;;20906964;28;20099;-59
2023/05/25 13:03:21;;;;;;;1.58;0.60;;;21.90;99.90;;;;;;20910680;28;20122;-59
2023/05/25 13:13:23;;;;;;;1.35;0.93;;;22.60;96.40;;;;;;20920583;28;20059;-59
2023/05/25 13:23:24;;;;;;;2.25;0.93;;;23.50;96.00;;;;;;20900819;28;20032;-60
2023/05/25 13:33:27;;;;;;;1.02;0.77;;;23.60;98.70;;;;;;20911300;28;20354;-60
2023/05/25 13:43:29;;;;;;;0.93;0.70;;;23.40;97.30;;;;;;20911081;28;20041;-60
2023/05/25 13:53:31;;;;;;;2.22;0.68;;;23.30;97.40;;;;;;20908995;28;20555;-60
2023/05/25 14:03:34;;;;;;;2.75;0.80;;;23.20;95.40;;;;;;20905743;28;20425;-61
2023/05/25 14:13:35;;;;;;;1.00;0.60;;;23.50;93.90;;;;;;20910804;28;20033;-61
2023/05/25 14:23:37;;;;;;;1.17;0.73;;;22.90;94.50;;;;;;20915024;28;20033;-62
2023/05/25 14:33:39;;;;;;;1.50;0.80;;;23.90;92.10;;;;;;20929712;28;20037;-62
2023/05/25 14:43:41;;;;;;;1.92;1.10;;;24.00;92.50;;;;;;20916734;28;20398;-62
2023/05/25 14:53:42;;;;;;;2.50;1.10;;;25.30;93.90;;;;;;20924767;28;20028;-62
2023/05/25 15:03:44;;;;;;;2.33;1.58;;;25.30;92.80;;;;;;20919829;28;20029;-62
2023/05/25 15:13:45;;;;;;;2.80;1.40;;;25.40;93.70;;;;;;20931364;28;20044;-60
2023/05/25 15:23:47;;;;;;;2.50;1.80;;;23.30;96.30;;;;;;20922128;28;20029;-59
2023/05/25 15:33:51;;;;;;;2.38;2.13;;;21.60;98.70;;;;;;20919904;28;20064;-59
2023/05/25 15:43:56;;;;;;;3.67;3.15;;;20.10;99.90;;;;;;20913166;28;20044;-59
2023/05/25 15:53:58;;;;;;;4.05;2.60;;;19.20;99.90;;;;;;20920059;28;20037;-61
2023/05/25 16:04:00;;;;;;;4.45;2.92;;;18.70;99.90;;;;;;20914101;28;20389;-59
2023/05/25 16:14:02;;;;;;;5.78;4.03;;;18.40;99.90;;;;;;20918668;28;20025;-59
2023/05/25 16:24:05;;;;;;;4.70;3.53;;;17.10;99.90;;;;;;20909140;28;20045;-59
2023/05/25 16:34:07;;;;;;;4.57;3.45;;;16.40;99.90;;;;;;20914339;28;20037;-52
2023/05/25 16:44:10;;;;;;;4.30;3.90;;;15.90;99.90;;;;;;20912400;28;20055;-59
2023/05/25 16:54:15;;;;;;;6.90;4.28;;;15.50;99.90;;;;;;20907078;28;20029;-58
2023/05/25 17:04:16;;;;;;;7.25;4.57;;;15.00;99.90;;;;;;20909938;28;20039;-60
2023/05/25 17:14:18;;;;;;;6.65;3.60;;;14.50;99.90;;;;;;20913572;28;20040;-59
2023/05/25 17:24:20;;;;;;;8.48;4.20;;;14.10;99.90;;;;;;20909952;28;20445;-59
2023/05/25 17:34:21;;;;;;;6.47;4.10;;;13.80;99.90;;;;;;20911139;28;20122;-59
2023/05/25 17:44:24;;;;;;;6.38;4.22;;;13.60;99.90;;;;;;20902044;28;20052;-49
2023/05/25 17:54:26;;;;;;;5.93;4.53;;;13.20;99.90;;;;;;20911617;28;20036;-58
2023/05/25 18:04:28;;;;;;;7.53;4.70;;;12.70;99.90;;;;;;20906498;28;20037;-59
2023/05/25 18:14:34;;;;;;;9.88;5.47;;;12.40;99.90;;;;;;20906920;28;20041;-53
2023/05/25 18:24:35;;;;;;;9.93;5.40;;;12.10;99.90;;;;;;20906050;28;20437;-58
2023/05/25 18:34:37;;;;;;;8.98;5.85;;;11.70;99.90;;;;;;20891838;28;20095;-58
2023/05/25 18:44:39;;;;;;;7.85;5.05;;;11.50;99.90;;;;;;20904895;28;20060;-58
2023/05/25 18:54:41;;;;;;;5.78;3.88;;;11.20;99.90;;;;;;20901950;28;20037;-58
2023/05/25 19:04:43;;;;;;;5.53;3.85;;;10.90;99.90;;;;;;20909387;28;20041;-58
2023/05/25 19:14:45;;;;;;;7.82;4.70;;;10.80;99.90;;;;;;20912848;28;20029;-58
2023/05/25 19:24:47;;;;;;;4.63;3.40;;;10.60;99.90;;;;;;20920712;28;20029;-58
2023/05/25 19:34:49;;;;;;;5.75;2.85;;;10.40;99.90;;;;;;20918783;28;20110;-58
2023/05/25 19:44:50;;;;;;;5.10;3.75;;;10.60;99.90;;;;;;20910097;28;20086;-58
2023/05/25 19:54:52;;;;;;;4.85;3.78;;;10.50;99.90;;;;;;20917025;28;20033;-52
2023/05/25 20:04:54;;;;;;;3.92;2.92;;;10.40;99.90;;;;;;20914736;28;20037;-58
2023/05/25 20:14:56;;;;;;;3.90;3.08;;;10.10;99.90;;;;;;20923420;28;20059;-58
2023/05/25 20:24:59;;;;;;;5.72;2.60;;;10.00;99.90;;;;;;20918948;28;20454;-50
2023/05/25 20:35:01;;;;;;;5.40;2.58;;;10.10;99.90;;;;;;20910973;28;20375;-50
2023/05/25 20:45:03;;;;;;;3.45;2.40;;;9.90;99.90;;;;;;20914322;28;20504;-55
2023/05/25 20:55:05;;;;;;;4.18;2.20;;;9.70;99.90;;;;;;20917472;28;20037;-50
2023/05/25 21:05:07;;;;;;;3.90;2.25;;;9.70;99.90;;;;;;20909738;28;20029;-58
2023/05/25 21:15:09;;;;;;;3.15;2.20;;;9.70;99.90;;;;;;20913973;28;20029;-49
2023/05/25 21:25:11;;;;;;;5.72;3.35;;;9.90;99.90;;;;;;20912877;28;20452;-48
2023/05/25 21:35:14;;;;;;;3.22;1.77;;;10.10;99.90;;;;;;20902942;28;20044;-57
2023/05/25 21:45:16;;;;;;;4.53;1.98;;;10.20;99.90;;;;;;20909081;28;20044;-58
2023/05/25 21:55:18;;;;;;;3.65;2.10;;;10.10;99.90;;;;;;20902109;28;20025;-49
2023/05/25 22:05:19;;;;;;;3.58;1.98;;;10.10;99.90;;;;;;20910322;28;20041;-52
2023/05/25 22:15:21;;;;;;;6.00;2.70;;;10.00;99.90;;;;;;20907123;28;20059;-51
2023/05/25 22:25:24;;;;;;;2.80;2.05;;;10.00;99.90;;;;;;20901031;28;20051;-51
2023/05/25 22:35:26;;;;;;;4.20;2.15;;;9.90;99.90;;;;;;20904489;28;20569;-48
2023/05/25 22:45:27;;;;;;;3.22;1.98;;;9.90;99.90;;;;;;20911339;28;20055;-49
2023/05/25 22:55:29;;;;;;;3.45;2.40;;;9.90;99.90;;;;;;20927868;28;20045;-51
2023/05/25 23:05:31;;;;;;;3.47;2.13;;;10.00;99.90;;;;;;20918715;28;20033;-53
2023/05/25 23:15:35;;;;;;;5.70;2.03;;;10.00;99.90;;;;;;20922770;28;20079;-57
2023/05/25 23:25:36;;;;;;;3.45;2.40;;;10.00;99.90;;;;;;20910128;28;20474;-50
2023/05/25 23:35:38;;;;;;;4.63;2.20;;;9.80;99.90;;;;;;20917184;28;20048;-57
2023/05/25 23:45:42;;;;;;;3.50;1.92;;;9.80;99.90;;;;;;20908842;28;20033;-57
2023/05/25 23:55:44;;;;;;;5.93;2.22;;;9.80;99.90;;;;;;20913126;28;20037;-57
